Time;durP1;ratioP1;P1;durP2;ratioP2;P2;SDS_P1;SDS_P2;PMS_P1;PMS_P2;Temp;Humidity;BMP_temperature;BMP_pressure;BME280_temperature;BME280_humidity;BME280_pressure;Samples;Min_cycle;Max_cycle;Signal;HPM_P1;HPM_P2
2022/02/05 00:01:33;;;;;;;27.83;12.40;;;-0.70;84.40;;;;;;5010271;28;20185;-74
2022/02/05 00:04:05;;;;;;;23.80;12.23;;;-0.70;84.20;;;;;;5005882;28;20295;-74
2022/02/05 00:06:35;;;;;;;29.07;12.70;;;-0.70;84.10;;;;;;5008088;28;20181;-74
2022/02/05 00:09:15;;;;;;;22.07;11.83;;;-0.70;84.00;;;;;;5009977;28;20260;-74
2022/02/05 00:14:40;;;;;;;20.43;9.87;;;-0.70;84.00;;;;;;5014101;28;20290;-74
2022/02/05 00:41:45;;;;;;;21.90;9.63;;;-0.80;83.70;;;;;;5013119;28;20265;-73
2022/02/05 00:44:11;;;;;;;24.70;9.37;;;-0.80;83.80;;;;;;5004523;28;20258;-73
2022/02/05 00:46:40;;;;;;;23.40;9.87;;;-0.80;83.70;;;;;;5010981;28;20189;-73
2022/02/05 00:49:12;;;;;;;23.63;10.13;;;-0.80;83.90;;;;;;5010623;28;20196;-74
2022/02/05 00:51:52;;;;;;;22.73;9.83;;;-0.80;83.90;;;;;;5008578;28;20650;-74
2022/02/05 00:54:21;;;;;;;20.87;11.47;;;-0.90;84.00;;;;;;5013596;28;20177;-73
2022/02/05 00:59:30;;;;;;;23.53;12.43;;;-0.90;84.50;;;;;;5013129;28;20214;-74
2022/02/05 01:01:56;;;;;;;31.00;13.30;;;-0.90;84.60;;;;;;5009128;28;20181;-74
2022/02/05 01:04:22;;;;;;;32.67;11.20;;;-0.90;84.60;;;;;;5009326;28;20189;-74
2022/02/05 01:06:48;;;;;;;26.07;13.27;;;-1.00;84.70;;;;;;5006578;28;20180;-74
2022/02/05 01:09:24;;;;;;;26.37;12.80;;;-1.00;84.80;;;;;;5007279;28;20177;-74
2022/02/05 01:11:51;;;;;;;22.50;12.20;;;-1.00;84.80;;;;;;5003319;28;20203;-74
2022/02/05 01:14:21;;;;;;;23.10;12.30;;;-1.00;84.90;;;;;;5007377;28;20179;-74
2022/02/05 01:16:56;;;;;;;28.50;11.70;;;-1.00;84.80;;;;;;5010925;28;20272;-74
2022/02/05 01:20:07;;;;;;;22.50;11.90;;;-1.00;84.90;;;;;;5010115;28;20326;-74
2022/02/05 01:22:10;;;;;;;26.47;11.87;;;-1.00;84.90;;;;;;5014437;28;21311;-74
2022/02/05 01:24:38;;;;;;;19.80;10.53;;;-1.00;84.80;;;;;;5013154;28;21702;-74
2022/02/05 01:27:25;;;;;;;13.40;8.93;;;-1.00;85.00;;;;;;5008613;28;20181;-74
2022/02/05 01:32:22;;;;;;;26.70;9.60;;;-1.00;85.00;;;;;;5012159;28;20671;-74
2022/02/05 01:35:02;;;;;;;21.17;10.50;;;-1.00;84.90;;;;;;5008796;28;20262;-74
2022/02/05 01:51:12;;;;;;;15.97;8.53;;;-1.00;84.90;;;;;;5012874;28;20709;-73
2022/02/05 02:07:10;;;;;;;20.27;10.10;;;-1.20;85.80;;;;;;5014497;28;20184;-75
2022/02/05 02:12:15;;;;;;;19.40;10.20;;;-1.30;85.90;;;;;;5013848;28;20547;-74
2022/02/05 02:14:56;;;;;;;18.97;9.13;;;-1.30;85.90;;;;;;5000837;28;20923;-74
2022/02/05 02:25:39;;;;;;;24.70;10.03;;;-1.40;86.30;;;;;;5015575;28;20209;-73
2022/02/05 02:28:44;;;;;;;16.20;8.63;;;-1.50;86.30;;;;;;5010720;28;20184;-73
2022/02/05 02:31:06;;;;;;;19.57;8.60;;;-1.50;86.30;;;;;;5015297;28;20196;-73
2022/02/05 02:33:37;;;;;;;19.83;8.97;;;-1.50;86.30;;;;;;5012650;28;20172;-73
2022/02/05 02:36:09;;;;;;;19.27;8.57;;;-1.50;86.20;;;;;;5012350;28;20243;-73
2022/02/05 02:38:44;;;;;;;13.97;8.57;;;-1.50;86.30;;;;;;5013340;28;20284;-73
2022/02/05 02:41:19;;;;;;;11.73;7.10;;;-1.50;86.20;;;;;;5013502;28;20191;-74
2022/02/05 02:43:45;;;;;;;11.77;7.10;;;-1.50;86.20;;;;;;5012380;28;20213;-72
2022/02/05 02:46:11;;;;;;;18.07;10.03;;;-1.50;86.30;;;;;;5014862;28;20203;-73
2022/02/05 02:48:37;;;;;;;20.10;9.30;;;-1.50;86.50;;;;;;5014780;28;20188;-73
2022/02/05 02:58:59;;;;;;;30.17;11.63;;;-1.50;87.20;;;;;;5009483;28;20291;-73
2022/02/05 03:01:25;;;;;;;19.23;11.03;;;-1.60;87.20;;;;;;5013574;28;20185;-74
2022/02/05 03:03:51;;;;;;;17.60;9.63;;;-1.60;87.20;;;;;;5016306;28;20208;-74
2022/02/05 03:06:17;;;;;;;18.97;10.60;;;-1.60;87.20;;;;;;5016035;28;20281;-73
2022/02/05 03:08:48;;;;;;;17.57;8.67;;;-1.60;87.10;;;;;;5012898;28;20181;-74
2022/02/05 03:11:18;;;;;;;18.13;8.33;;;-1.60;86.90;;;;;;5010778;28;20181;-73
2022/02/05 03:13:44;;;;;;;13.47;8.37;;;-1.60;86.80;;;;;;5015316;28;20180;-74
2022/02/05 03:16:20;;;;;;;19.83;9.37;;;-1.60;86.80;;;;;;5015493;28;20193;-74
2022/02/05 03:18:50;;;;;;;13.30;7.83;;;-1.60;86.70;;;;;;5014118;28;20191;-75
2022/02/05 03:21:16;;;;;;;13.70;8.27;;;-1.70;86.90;;;;;;5010387;28;20180;-75
2022/02/05 03:23:41;;;;;;;13.47;8.83;;;-1.70;86.90;;;;;;5012304;28;20223;-74
2022/02/05 03:26:09;;;;;;;28.20;11.20;;;-1.70;86.80;;;;;;5013069;28;20180;-75
2022/02/05 03:28:36;;;;;;;21.57;8.97;;;-1.70;87.00;;;;;;5008975;28;20223;-75
2022/02/05 03:31:02;;;;;;;16.77;8.27;;;-1.70;87.00;;;;;;5011778;28;20184;-75
2022/02/05 03:33:27;;;;;;;21.30;9.33;;;-1.70;87.00;;;;;;5017411;28;20185;-76
2022/02/05 03:35:53;;;;;;;16.67;8.07;;;-1.70;87.00;;;;;;5013154;28;20180;-74
2022/02/05 03:38:19;;;;;;;17.43;8.37;;;-1.70;87.00;;;;;;5018780;28;20665;-75
2022/02/05 03:40:45;;;;;;;11.93;6.67;;;-1.70;86.90;;;;;;5013450;28;20184;-75
2022/02/05 03:43:11;;;;;;;21.60;7.70;;;-1.70;86.80;;;;;;5009636;28;20227;-73
2022/02/05 03:45:36;;;;;;;12.60;8.67;;;-1.70;86.80;;;;;;5011809;28;20184;-73
2022/02/05 03:48:02;;;;;;;17.47;8.83;;;-1.70;86.70;;;;;;5012279;28;20651;-73
2022/02/05 03:50:29;;;;;;;18.83;9.20;;;-1.70;86.80;;;;;;5010203;28;20177;-73
2022/02/05 03:52:55;;;;;;;18.07;9.37;;;-1.70;86.80;;;;;;5013250;28;20310;-74
2022/02/05 03:55:21;;;;;;;24.23;10.70;;;-1.70;86.80;;;;;;5006070;28;20652;-74
2022/02/05 03:57:47;;;;;;;20.23;10.70;;;-1.70;86.90;;;;;;5009767;28;20200;-73
2022/02/05 04:00:13;;;;;;;17.97;9.43;;;-1.70;86.80;;;;;;5015686;28;20182;-74
2022/02/05 04:02:39;;;;;;;16.43;9.80;;;-1.70;86.80;;;;;;5014896;28;20244;-74
2022/02/05 04:05:06;;;;;;;19.87;9.37;;;-1.70;86.80;;;;;;5011690;28;20220;-74
2022/02/05 04:07:36;;;;;;;15.20;10.33;;;-1.70;86.70;;;;;;5010248;28;20630;-74
2022/02/05 04:10:05;;;;;;;21.10;10.60;;;-1.70;86.60;;;;;;5008810;28;20189;-74
2022/02/05 04:18:01;;;;;;;22.03;11.67;;;-1.80;86.50;;;;;;5014903;28;20246;-74
2022/02/05 04:20:28;;;;;;;19.97;11.77;;;-1.80;86.60;;;;;;5015397;28;20614;-73
2022/02/05 04:22:54;;;;;;;23.10;11.43;;;-1.90;86.50;;;;;;5009500;28;20655;-74
2022/02/05 04:25:20;;;;;;;30.47;11.20;;;-1.90;86.50;;;;;;5008624;28;20250;-74
2022/02/05 04:27:46;;;;;;;26.30;10.87;;;-2.00;86.80;;;;;;5012258;28;20690;-74
2022/02/05 04:30:12;;;;;;;29.93;11.27;;;-2.00;86.90;;;;;;5007418;28;20234;-74
2022/02/05 04:32:38;;;;;;;16.43;10.37;;;-2.00;87.00;;;;;;5011010;28;20283;-74
2022/02/05 04:35:04;;;;;;;20.87;11.37;;;-2.10;86.80;;;;;;5012343;28;20212;-74
2022/02/05 04:37:31;;;;;;;24.33;12.07;;;-2.10;86.90;;;;;;5009129;28;20198;-74
2022/02/05 04:40:14;;;;;;;25.37;11.83;;;-2.10;86.80;;;;;;5011567;28;20195;-74
2022/02/05 04:42:49;;;;;;;18.33;10.57;;;-2.10;86.90;;;;;;5013806;28;20244;-74
2022/02/05 04:58:22;;;;;;;35.27;16.07;;;-2.20;87.30;;;;;;4991883;28;20189;-74
2022/02/05 05:03:52;;;;;;;30.37;15.33;;;-2.30;87.20;;;;;;4987561;28;20282;-74
2022/02/05 05:09:09;;;;;;;19.70;12.23;;;-2.30;88.50;;;;;;4985963;28;20196;-74
2022/02/05 05:12:02;;;;;;;26.57;12.53;;;-2.40;88.90;;;;;;4987991;28;20452;-73
2022/02/05 05:20:14;;;;;;;14.40;11.10;;;-2.40;89.90;;;;;;4989686;28;20200;-73
2022/02/05 05:22:39;;;;;;;22.47;12.47;;;-2.50;90.00;;;;;;4984671;28;20626;-74
2022/02/05 05:25:06;;;;;;;23.43;12.93;;;-2.50;89.90;;;;;;4981741;28;20308;-74
2022/02/05 05:27:32;;;;;;;21.23;11.03;;;-2.50;90.10;;;;;;4994753;28;20221;-73
2022/02/05 05:29:58;;;;;;;22.43;12.03;;;-2.50;90.10;;;;;;4998370;28;20185;-73
2022/02/05 05:32:24;;;;;;;14.27;10.23;;;-2.50;90.00;;;;;;5000071;28;20205;-73
2022/02/05 05:34:49;;;;;;;14.17;8.43;;;-2.50;89.70;;;;;;5000570;28;20732;-74
2022/02/05 05:37:19;;;;;;;9.17;8.07;;;-2.50;89.90;;;;;;5003585;28;20255;-73
2022/02/05 05:39:45;;;;;;;16.87;7.33;;;-2.50;90.00;;;;;;5003155;28;20244;-74
2022/02/05 05:42:16;;;;;;;13.30;8.67;;;-2.50;89.80;;;;;;4988461;28;20181;-74
2022/02/05 05:52:19;;;;;;;16.63;8.53;;;-2.40;89.80;;;;;;5014303;28;20248;-74
2022/02/05 05:54:45;;;;;;;10.10;7.50;;;-2.40;89.80;;;;;;5014870;28;20196;-74
2022/02/05 05:57:11;;;;;;;15.87;7.50;;;-2.40;89.90;;;;;;5011328;28;20189;-75
2022/02/05 05:59:41;;;;;;;12.20;7.13;;;-2.40;90.00;;;;;;5013309;28;20185;-74
2022/02/05 06:02:08;;;;;;;13.00;6.33;;;-2.30;89.80;;;;;;5014430;28;20285;-74
2022/02/05 06:04:34;;;;;;;10.57;6.43;;;-2.30;89.70;;;;;;5016310;28;20271;-74
2022/02/05 06:07:00;;;;;;;10.27;6.87;;;-2.30;89.70;;;;;;5012695;28;20242;-75
2022/02/05 06:09:26;;;;;;;8.20;6.27;;;-2.20;89.50;;;;;;5012204;28;20180;-74
2022/02/05 06:11:52;;;;;;;10.03;5.97;;;-2.20;89.30;;;;;;5010323;28;20216;-74
2022/02/05 06:14:22;;;;;;;8.83;7.83;;;-2.10;89.10;;;;;;5015244;28;20270;-74
2022/02/05 06:16:52;;;;;;;16.23;8.67;;;-2.10;88.90;;;;;;5011209;28;20212;-75
2022/02/05 06:19:20;;;;;;;13.00;8.53;;;-2.00;89.00;;;;;;5011249;28;20254;-75
2022/02/05 06:21:46;;;;;;;21.53;10.87;;;-2.00;88.90;;;;;;5011141;28;20335;-74
2022/02/05 06:24:12;;;;;;;19.23;10.60;;;-1.90;88.70;;;;;;5016639;28;20216;-74
2022/02/05 06:26:38;;;;;;;18.27;10.17;;;-1.90;88.60;;;;;;5013454;28;20192;-74
2022/02/05 06:29:04;;;;;;;19.83;10.53;;;-1.80;88.60;;;;;;5012552;28;20681;-74
2022/02/05 06:31:29;;;;;;;23.80;11.10;;;-1.80;88.50;;;;;;5014290;28;20204;-74
2022/02/05 06:33:55;;;;;;;19.73;10.80;;;-1.80;88.30;;;;;;5017095;28;22364;-74
2022/02/05 06:36:21;;;;;;;24.60;10.93;;;-1.70;88.40;;;;;;5011326;28;20759;-74
2022/02/05 06:38:47;;;;;;;22.23;10.33;;;-1.70;88.30;;;;;;5012258;28;20189;-74
2022/02/05 06:41:13;;;;;;;20.63;10.80;;;-1.60;88.20;;;;;;5009490;28;20181;-75
2022/02/05 06:43:39;;;;;;;18.43;11.43;;;-1.60;88.10;;;;;;5010217;28;20216;-74
2022/02/05 06:46:05;;;;;;;23.27;13.47;;;-1.50;88.00;;;;;;5012609;28;20176;-74
2022/02/05 06:48:30;;;;;;;19.37;11.13;;;-1.40;87.80;;;;;;5011919;28;20665;-74
2022/02/05 06:50:56;;;;;;;25.93;12.50;;;-1.40;87.70;;;;;;5011945;28;20260;-74
2022/02/05 06:53:22;;;;;;;29.80;15.37;;;-1.30;87.50;;;;;;5014341;28;20640;-73
2022/02/05 06:55:47;;;;;;;25.03;12.07;;;-1.20;87.30;;;;;;5008927;28;20186;-75
2022/02/05 06:58:13;;;;;;;28.97;14.30;;;-1.10;87.10;;;;;;5018270;28;20264;-74
2022/02/05 07:00:39;;;;;;;25.20;14.17;;;-1.00;86.90;;;;;;5012102;28;20255;-75
2022/02/05 07:03:08;;;;;;;34.67;16.37;;;-0.80;87.10;;;;;;5016144;28;20274;-75
2022/02/05 07:05:34;;;;;;;24.23;14.03;;;-0.60;86.90;;;;;;5015288;28;20192;-74
2022/02/05 07:07:59;;;;;;;37.27;16.43;;;-0.30;86.40;;;;;;5012741;28;20627;-75
2022/02/05 07:10:25;;;;;;;29.07;16.03;;;0.00;85.70;;;;;;5011077;28;20676;-74
2022/02/05 07:15:24;;;;;;;33.80;18.60;;;0.80;84.90;;;;;;5011164;28;20184;-75
2022/02/05 07:20:35;;;;;;;35.37;17.00;;;1.70;83.50;;;;;;5008257;28;20197;-73
2022/02/05 07:31:00;;;;;;;40.80;20.13;;;3.70;77.80;;;;;;5006733;28;20191;-73
2022/02/05 07:33:28;;;;;;;41.80;22.63;;;4.40;77.80;;;;;;5002407;28;20193;-73
2022/02/05 07:35:54;;;;;;;60.50;23.30;;;5.10;78.00;;;;;;5008843;28;20181;-73
2022/02/05 07:38:20;;;;;;;53.93;23.63;;;5.80;76.90;;;;;;5012187;28;20189;-73
2022/02/05 07:40:46;;;;;;;63.70;24.10;;;6.50;74.70;;;;;;5011540;28;20196;-73
2022/02/05 07:43:11;;;;;;;54.63;26.83;;;7.20;72.80;;;;;;5009279;28;20215;-74
2022/02/05 07:45:37;;;;;;;49.53;26.33;;;7.90;71.60;;;;;;5006393;28;20789;-73
2022/02/05 07:48:04;;;;;;;54.43;28.37;;;8.50;69.60;;;;;;5006891;28;20276;-73
2022/02/05 07:50:30;;;;;;;54.47;27.90;;;9.20;68.40;;;;;;5009731;28;20693;-74
2022/02/05 07:52:55;;;;;;;70.97;29.10;;;9.70;66.40;;;;;;5007534;28;20189;-74
2022/02/05 07:55:21;;;;;;;53.63;29.17;;;10.00;64.60;;;;;;5010690;28;20211;-77
2022/02/05 07:57:47;;;;;;;61.17;31.60;;;10.30;63.90;;;;;;5006940;28;20565;-74
2022/02/05 08:00:13;;;;;;;60.10;29.17;;;10.60;62.20;;;;;;5007409;28;20181;-74
2022/02/05 08:02:39;;;;;;;59.33;33.13;;;10.90;61.80;;;;;;5007086;28;20305;-74
2022/02/05 08:05:05;;;;;;;71.22;31.05;;;11.20;61.30;;;;;;5005901;28;20699;-74
2022/02/05 08:07:31;;;;;;;57.93;32.47;;;11.00;60.10;;;;;;5004101;28;20188;-74
2022/02/05 08:10:01;;;;;;;59.58;32.17;;;11.00;60.00;;;;;;5005807;28;20192;-75
2022/02/05 08:12:28;;;;;;;56.88;31.88;;;11.20;60.10;;;;;;5009713;28;20191;-74
2022/02/05 08:14:56;;;;;;;55.08;31.17;;;11.60;60.10;;;;;;5009366;28;20181;-75
2022/02/05 08:17:26;;;;;;;57.42;29.92;;;11.70;59.30;;;;;;5007360;28;20646;-75
2022/02/05 08:19:52;;;;;;;59.70;32.17;;;11.70;58.70;;;;;;5024206;28;20276;-75
2022/02/05 08:22:19;;;;;;;66.93;32.97;;;11.60;58.00;;;;;;5009495;28;20193;-75
2022/02/05 08:24:47;;;;;;;54.88;29.98;;;11.60;58.60;;;;;;5006671;28;20192;-75
2022/02/05 08:27:13;;;;;;;57.35;30.05;;;11.70;58.20;;;;;;5007324;28;20180;-75
2022/02/05 08:29:45;;;;;;;52.50;29.80;;;11.90;58.10;;;;;;5005377;28;20578;-75
2022/02/05 08:32:11;;;;;;;49.00;28.15;;;12.10;57.60;;;;;;5008712;28;20184;-74
2022/02/05 08:34:39;;;;;;;50.17;29.63;;;12.40;57.70;;;;;;5007455;28;20265;-75
2022/02/05 08:37:05;;;;;;;49.42;28.38;;;12.80;56.90;;;;;;5003319;28;20221;-75
2022/02/05 08:39:33;;;;;;;54.03;28.17;;;13.00;56.10;;;;;;5005701;28;20227;-75
2022/02/05 08:42:02;;;;;;;47.42;26.65;;;13.30;55.80;;;;;;5002767;28;20188;-74
2022/02/05 08:44:28;;;;;;;48.78;25.73;;;13.60;55.80;;;;;;5002245;28;20213;-74
2022/02/05 08:46:54;;;;;;;42.92;25.60;;;14.10;55.30;;;;;;5002637;28;20254;-74
2022/02/05 08:49:20;;;;;;;42.80;22.58;;;14.50;54.70;;;;;;5007662;28;20177;-75
2022/02/05 08:51:46;;;;;;;36.53;20.45;;;14.60;53.10;;;;;;5005042;28;20658;-74
2022/02/05 08:54:11;;;;;;;32.80;19.48;;;15.00;53.70;;;;;;5007259;28;20185;-75
2022/02/05 08:56:37;;;;;;;29.85;18.40;;;15.50;53.80;;;;;;5003011;28;20720;-75
2022/02/05 08:59:04;;;;;;;28.17;18.00;;;16.00;53.30;;;;;;5010865;28;20182;-74
2022/02/05 09:01:42;;;;;;;33.72;17.50;;;16.70;52.50;;;;;;5005135;28;20855;-74
2022/02/05 09:04:23;;;;;;;34.65;17.80;;;17.20;51.60;;;;;;5005933;28;20251;-74
2022/02/05 09:06:49;;;;;;;22.25;15.63;;;17.70;49.30;;;;;;5001520;28;20588;-74
2022/02/05 09:09:29;;;;;;;28.88;17.75;;;17.70;47.80;;;;;;5003927;28;20216;-75
2022/02/05 09:12:18;;;;;;;33.85;17.08;;;17.40;48.80;;;;;;5011125;28;20196;-75
2022/02/05 09:14:47;;;;;;;29.38;18.20;;;17.30;49.30;;;;;;5007778;28;20191;-75
2022/02/05 09:17:13;;;;;;;33.42;20.52;;;17.40;48.50;;;;;;5007953;28;20285;-76
2022/02/05 09:19:40;;;;;;;34.03;19.33;;;17.60;47.50;;;;;;5005685;28;20366;-76
2022/02/05 09:22:06;;;;;;;28.38;18.85;;;17.80;48.50;;;;;;5014517;28;20181;-77
2022/02/05 09:24:41;;;;;;;32.85;21.60;;;17.70;47.30;;;;;;5013958;28;20195;-76
2022/02/05 09:27:11;;;;;;;36.60;23.52;;;17.40;47.50;;;;;;5012982;28;20179;-74
2022/02/05 09:30:00;;;;;;;39.63;24.15;;;17.30;47.80;;;;;;5012121;28;20205;-74
2022/02/05 09:32:26;;;;;;;43.65;24.63;;;17.20;48.10;;;;;;5014190;28;20207;-73
2022/02/05 09:34:53;;;;;;;37.92;24.65;;;17.30;49.10;;;;;;5009750;28;20184;-73
2022/02/05 09:37:19;;;;;;;36.88;24.50;;;17.70;48.50;;;;;;5007317;28;20183;-73
2022/02/05 09:39:45;;;;;;;33.75;21.58;;;18.00;48.90;;;;;;5007582;28;20760;-74
2022/02/05 09:42:12;;;;;;;34.92;22.55;;;18.10;46.30;;;;;;5003391;28;20262;-71
2022/02/05 09:44:38;;;;;;;41.40;24.45;;;18.10;46.40;;;;;;5010402;28;20211;-73
2022/02/05 09:47:04;;;;;;;41.38;24.90;;;18.10;46.50;;;;;;5017560;28;21080;-71
2022/02/05 09:49:30;;;;;;;40.15;25.33;;;18.40;48.00;;;;;;5013273;28;20217;-72
2022/02/05 09:52:23;;;;;;;50.30;27.17;;;18.90;48.20;;;;;;5015414;28;20185;-70
2022/02/05 09:54:48;;;;;;;42.92;26.83;;;19.50;48.20;;;;;;5010425;28;20180;-73
2022/02/05 09:57:14;;;;;;;50.95;28.45;;;20.20;47.40;;;;;;5007376;28;20188;-73
2022/02/05 09:59:45;;;;;;;39.97;27.73;;;20.60;46.60;;;;;;5008088;28;20181;-73
2022/02/05 10:02:38;;;;;;;42.05;28.05;;;20.80;46.20;;;;;;5024100;28;20185;-72
2022/02/05 10:05:21;;;;;;;56.58;27.67;;;21.00;44.40;;;;;;5011243;28;20200;-71
2022/02/05 10:08:01;;;;;;;41.67;27.52;;;21.10;47.00;;;;;;5013000;28;20213;-72
2022/02/05 10:10:40;;;;;;;55.10;28.70;;;21.00;43.70;;;;;;5010487;28;20191;-74
2022/02/05 10:13:09;;;;;;;71.05;30.48;;;20.50;44.10;;;;;;5011242;28;20568;-72
2022/02/05 10:15:36;;;;;;;40.95;26.33;;;20.10;44.60;;;;;;5012397;28;20192;-72
2022/02/05 10:18:03;;;;;;;40.15;27.25;;;19.60;44.90;;;;;;5011314;28;20185;-72
2022/02/05 10:20:30;;;;;;;41.17;25.98;;;19.20;47.60;;;;;;5013501;28;20295;-72
2022/02/05 10:22:57;;;;;;;43.15;24.70;;;19.50;47.00;;;;;;5013206;28;20252;-72
2022/02/05 10:25:28;;;;;;;40.15;25.27;;;20.00;47.40;;;;;;5009029;28;20206;-73
2022/02/05 10:27:54;;;;;;;42.92;25.17;;;20.40;45.30;;;;;;5014795;28;21903;-73
2022/02/05 10:30:25;;;;;;;43.53;24.83;;;20.60;45.70;;;;;;5016326;28;20188;-73
2022/02/05 10:33:00;;;;;;;37.58;24.65;;;20.60;44.60;;;;;;5013125;28;20638;-73
2022/02/05 10:35:36;;;;;;;39.28;25.83;;;20.50;44.80;;;;;;5008798;28;20184;-72
2022/02/05 10:43:07;;;;;;;39.97;24.70;;;20.60;45.40;;;;;;5012381;28;20215;-72
2022/02/05 10:45:44;;;;;;;44.05;26.55;;;20.80;45.00;;;;;;5009291;28;20185;-73
2022/02/05 10:48:16;;;;;;;37.38;24.45;;;20.90;45.40;;;;;;5013143;28;20258;-73
2022/02/05 10:50:42;;;;;;;40.55;24.42;;;20.90;44.70;;;;;;5007492;28;20986;-73
2022/02/05 10:53:27;;;;;;;39.42;24.88;;;20.80;44.40;;;;;;5013891;28;20193;-73
2022/02/05 11:07:12;;;;;;;41.65;27.02;;;20.60;44.40;;;;;;5010592;28;20188;-72
2022/02/05 11:09:57;;;;;;;39.30;25.77;;;20.40;45.30;;;;;;5007890;28;20242;-73
2022/02/05 11:20:36;;;;;;;44.05;28.27;;;22.00;44.80;;;;;;5013854;28;20234;-71
2022/02/05 11:23:11;;;;;;;42.50;26.85;;;22.30;43.80;;;;;;5016115;28;20687;-72
2022/02/05 11:25:40;;;;;;;45.20;27.48;;;22.70;44.80;;;;;;5011226;28;20188;-72
2022/02/05 11:28:07;;;;;;;44.50;27.10;;;23.10;44.00;;;;;;5011101;28;20180;-72
2022/02/05 11:30:43;;;;;;;50.15;28.45;;;23.20;44.20;;;;;;5007779;28;20764;-72
2022/02/05 11:33:25;;;;;;;68.88;28.38;;;23.40;42.30;;;;;;5010951;28;20206;-72
2022/02/05 11:38:33;;;;;;;53.95;28.67;;;23.70;42.60;;;;;;5008819;28;20197;-72
2022/02/05 11:41:00;;;;;;;46.70;28.27;;;23.20;41.50;;;;;;5010926;28;20180;-72
2022/02/05 11:43:33;;;;;;;53.30;28.52;;;22.40;42.50;;;;;;5010786;28;20208;-72
2022/02/05 11:46:10;;;;;;;45.28;28.85;;;21.60;44.00;;;;;;5010432;28;20237;-72
2022/02/05 11:48:45;;;;;;;54.08;29.10;;;20.70;44.30;;;;;;5010631;28;20286;-72
2022/02/05 11:51:30;;;;;;;48.50;29.33;;;20.00;45.20;;;;;;5010531;28;20184;-72
2022/02/05 11:53:56;;;;;;;56.70;29.48;;;19.20;45.60;;;;;;5011600;28;20339;-72
2022/02/05 11:57:11;;;;;;;63.55;30.70;;;18.60;47.00;;;;;;5012557;28;20205;-72
2022/02/05 11:59:57;;;;;;;49.35;30.55;;;18.00;47.20;;;;;;5011508;28;20279;-73
2022/02/05 12:02:26;;;;;;;57.08;31.23;;;17.50;47.80;;;;;;5007825;28;20189;-71
2022/02/05 12:05:24;;;;;;;48.53;31.38;;;17.20;48.70;;;;;;5009674;28;20186;-71
2022/02/05 12:08:05;;;;;;;44.63;27.08;;;16.90;48.70;;;;;;4992501;28;20398;-71
2022/02/05 12:10:40;;;;;;;40.08;24.50;;;17.20;49.60;;;;;;5003658;28;20199;-72
2022/02/05 12:13:15;;;;;;;38.33;22.40;;;17.50;50.30;;;;;;4993771;28;20191;-72
2022/02/05 12:15:46;;;;;;;34.40;21.25;;;17.90;48.30;;;;;;4987567;28;20504;-72
2022/02/05 12:20:57;;;;;;;28.67;15.73;;;17.90;47.20;;;;;;5008469;28;20571;-72
2022/02/05 12:23:42;;;;;;;27.02;15.15;;;17.60;47.80;;;;;;5006255;28;20301;-71
2022/02/05 12:26:08;;;;;;;21.25;14.13;;;17.20;47.90;;;;;;5008259;28;20188;-71
2022/02/05 12:28:40;;;;;;;21.67;12.93;;;17.10;49.50;;;;;;4993016;28;20250;-72
2022/02/05 12:31:26;;;;;;;18.38;12.02;;;17.10;49.60;;;;;;5007279;28;20650;-72
2022/02/05 12:34:12;;;;;;;14.15;8.90;;;17.00;49.60;;;;;;4989646;28;20177;-72
2022/02/05 12:36:48;;;;;;;11.77;7.80;;;16.80;49.80;;;;;;5008864;28;20204;-71
2022/02/05 12:39:29;;;;;;;10.13;6.43;;;16.60;50.90;;;;;;5042653;28;20243;-72
2022/02/05 12:42:00;;;;;;;6.82;4.85;;;16.40;51.10;;;;;;5007543;28;20191;-72
2022/02/05 12:44:29;;;;;;;6.22;5.00;;;16.10;50.70;;;;;;5008937;28;20208;-72
2022/02/05 12:47:06;;;;;;;6.20;3.85;;;15.70;51.40;;;;;;5007046;28;20188;-72
2022/02/05 12:52:00;;;;;;;2.78;2.58;;;15.20;51.20;;;;;;5007163;28;20176;-72
2022/02/05 12:54:29;;;;;;;2.55;2.42;;;15.10;52.70;;;;;;5002035;28;20731;-73
2022/02/05 12:56:58;;;;;;;2.45;2.30;;;15.20;52.20;;;;;;5005624;28;20181;-73
2022/02/05 12:59:35;;;;;;;3.60;2.25;;;15.20;51.90;;;;;;5006866;28;20184;-75
2022/02/05 13:02:10;;;;;;;2.15;2.05;;;15.10;52.00;;;;;;5012882;28;20219;-76
2022/02/05 13:04:38;;;;;;;3.72;2.88;;;14.90;52.10;;;;;;5013612;28;20219;-76
2022/02/05 13:07:04;;;;;;;2.45;2.25;;;14.80;53.00;;;;;;5016057;28;20243;-75
2022/02/05 13:09:33;;;;;;;3.25;2.15;;;14.80;53.00;;;;;;5017019;28;20663;-76
2022/02/05 13:12:07;;;;;;;4.63;3.05;;;14.70;53.60;;;;;;5016280;28;20635;-73
2022/02/05 13:14:43;;;;;;;3.80;3.10;;;14.70;53.20;;;;;;5009458;28;20211;-73
2022/02/05 13:17:38;;;;;;;5.93;2.75;;;14.80;53.90;;;;;;5006811;28;20188;-73
2022/02/05 13:28:26;;;;;;;3.05;2.83;;;15.70;52.70;;;;;;5007820;28;20185;-78
2022/02/05 13:36:09;;;;;;;3.42;1.88;;;16.30;51.90;;;;;;5004577;28;20200;-74
2022/02/05 13:38:54;;;;;;;1.83;1.65;;;16.20;51.60;;;;;;5003872;28;20673;-74
2022/02/05 13:41:33;;;;;;;1.85;1.70;;;16.00;52.20;;;;;;5004636;28;20575;-74
2022/02/05 13:44:00;;;;;;;2.60;2.50;;;15.40;52.60;;;;;;5001531;28;20234;-73
2022/02/05 13:46:26;;;;;;;2.35;2.20;;;14.80;53.60;;;;;;5007136;28;20247;-73
2022/02/05 13:48:52;;;;;;;2.75;2.55;;;14.10;55.30;;;;;;5007232;28;20193;-73
2022/02/05 13:51:19;;;;;;;3.40;2.08;;;13.90;55.90;;;;;;5007688;28;20181;-73
2022/02/05 13:53:53;;;;;;;2.45;1.92;;;13.80;56.60;;;;;;5005407;28;20254;-74
2022/02/05 13:56:20;;;;;;;2.03;1.67;;;13.80;56.40;;;;;;5011943;28;20330;-74
2022/02/05 13:58:46;;;;;;;2.95;2.50;;;13.90;57.10;;;;;;5007603;28;20189;-74
2022/02/05 14:01:35;;;;;;;3.72;2.35;;;14.10;56.10;;;;;;5010577;28;20192;-74
2022/02/05 14:04:30;;;;;;;2.17;1.98;;;14.20;56.30;;;;;;5009709;28;20213;-74
2022/02/05 14:06:58;;;;;;;2.90;2.70;;;14.30;55.80;;;;;;5007406;28;20205;-74
2022/02/05 14:09:38;;;;;;;2.45;2.25;;;14.10;55.80;;;;;;5004239;28;20243;-74
2022/02/05 14:12:14;;;;;;;2.67;2.47;;;14.00;56.40;;;;;;5003592;28;20279;-74
2022/02/05 14:14:40;;;;;;;5.13;3.55;;;13.80;56.50;;;;;;5010159;28;20631;-74
2022/02/05 14:17:18;;;;;;;3.28;3.05;;;13.50;57.10;;;;;;4991495;28;20670;-74
2022/02/05 14:19:45;;;;;;;2.85;2.67;;;13.20;57.40;;;;;;5005659;28;20259;-73
2022/02/05 14:22:27;;;;;;;2.28;2.15;;;12.90;58.30;;;;;;4997727;28;20181;-73
2022/02/05 14:25:23;;;;;;;2.33;2.10;;;12.60;58.60;;;;;;4995092;28;20236;-74
2022/02/05 14:28:05;;;;;;;2.10;1.48;;;12.20;59.50;;;;;;5006547;28;20986;-74
2022/02/05 14:30:33;;;;;;;1.70;1.60;;;11.80;59.60;;;;;;5004313;28;20759;-74
2022/02/05 14:33:02;;;;;;;2.03;1.65;;;11.40;60.70;;;;;;4994638;28;20185;-73
2022/02/05 14:40:46;;;;;;;2.45;1.83;;;10.90;61.90;;;;;;5009727;28;20280;-73
2022/02/05 14:43:14;;;;;;;2.40;2.28;;;10.80;62.10;;;;;;4994191;28;20231;-75
2022/02/05 14:45:40;;;;;;;3.53;3.20;;;10.60;62.50;;;;;;5008841;28;20188;-74
2022/02/05 14:48:06;;;;;;;3.38;2.53;;;10.50;62.70;;;;;;5015621;28;20192;-74
2022/02/05 14:50:32;;;;;;;6.70;3.25;;;10.40;63.10;;;;;;5013856;28;20269;-74
2022/02/05 14:52:58;;;;;;;4.45;3.38;;;10.30;63.00;;;;;;5012898;28;20193;-74
2022/02/05 14:55:23;;;;;;;5.07;3.88;;;10.30;63.00;;;;;;5013428;28;20184;-73
2022/02/05 14:57:50;;;;;;;6.82;3.90;;;10.20;63.20;;;;;;5012451;28;20185;-74
2022/02/05 15:00:17;;;;;;;7.15;4.63;;;10.10;63.70;;;;;;5007135;28;20280;-74
2022/02/05 15:02:42;;;;;;;6.40;4.85;;;10.00;63.80;;;;;;5009554;28;20224;-74
2022/02/05 15:05:12;;;;;;;7.10;5.00;;;9.90;64.00;;;;;;5009280;28;20667;-74
2022/02/05 15:07:42;;;;;;;7.75;5.70;;;9.80;64.10;;;;;;5009100;28;20193;-73
2022/02/05 15:10:16;;;;;;;8.15;4.28;;;9.70;64.40;;;;;;5009036;28;20696;-74
2022/02/05 15:12:42;;;;;;;4.57;4.15;;;9.60;64.70;;;;;;5013241;28;20188;-73
2022/02/05 15:15:19;;;;;;;3.95;3.63;;;9.50;65.00;;;;;;5012738;28;20189;-73
2022/02/05 15:17:45;;;;;;;3.65;3.33;;;9.40;65.10;;;;;;5006499;28;20199;-73
2022/02/05 15:20:16;;;;;;;1.93;1.83;;;9.30;65.30;;;;;;5009476;28;20220;-74
2022/02/05 15:22:45;;;;;;;3.08;2.78;;;9.20;65.50;;;;;;5006909;28;20278;-73
2022/02/05 15:25:12;;;;;;;2.72;2.63;;;9.20;65.60;;;;;;5003778;28;20995;-73
2022/02/05 15:27:39;;;;;;;4.22;2.38;;;9.20;65.80;;;;;;5005829;28;20190;-73
2022/02/05 15:30:09;;;;;;;2.72;2.53;;;9.20;65.80;;;;;;5005227;28;20181;-73
2022/02/05 15:32:35;;;;;;;3.77;3.30;;;9.10;65.80;;;;;;5013105;28;20659;-73
2022/02/05 15:35:01;;;;;;;3.53;3.23;;;9.10;66.00;;;;;;5011429;28;20207;-75
2022/02/05 15:37:27;;;;;;;3.77;3.23;;;9.10;66.40;;;;;;5010894;28;20192;-73
2022/02/05 15:40:13;;;;;;;4.30;3.27;;;9.00;66.50;;;;;;5008984;28;20181;-73
2022/02/05 15:45:23;;;;;;;3.80;3.50;;;8.90;66.90;;;;;;5007958;28;20420;-73
2022/02/05 15:47:49;;;;;;;4.50;3.53;;;8.90;66.90;;;;;;5009750;28;20181;-73
2022/02/05 15:50:14;;;;;;;3.53;3.20;;;8.90;67.10;;;;;;5010669;28;20189;-73
2022/02/05 15:52:40;;;;;;;4.33;3.60;;;8.90;67.10;;;;;;5012254;28;20656;-73